首页
METAR-TAF:

METAR-TAF

机场 :

Cahokia / 圣路易斯, 伊利诺伊州, 美国

纬度: 38-34-15N, 经度: 090-09-22W, 海拔: 126米

当前天气观测

该预报发布于21分钟前的18:25 UTC
风速8节,风向南转南东
温度 21°C
湿度 88%
气压 1005 hPa
能見度: 16.1公里
阴天层高于10000英尺
小雨

METAR: KCPS 281825Z 15008KT 10SM -RA OVC100 21/19 A2967 RMK AO2 LTG DSNT E-S PRESFR P0003 T02060194

时间: 13:46 (18:46 UTC)

预报

该预报发布于1小时和16分钟前的17:30 UTC
预报有效从28日的 18点(UTC)到 29日的 18点(UTC)
风速8节,风向
能見度: 9.7公里
多云层高于4000英尺
阴天层高于12000英尺
小雨
从 28日的 2000点(UTC)
风速13节,风向南转西南,有时为23节阵风
能見度: 10公里
多云层高于4500英尺, 积雨云.
附近有雷暴
短暂存在
从 28日的 20点(UTC)到 28日的 22点(UTC)
能見度: 4.8公里
阴天层高于2500英尺, 积雨云.
雷暴, 雨
从 29日的 0000点(UTC)
风速12节,风向西南,有时为22节阵风
能見度: 10公里
散云层高于5000英尺, 积雨云.
附近有雷暴
从 29日的 0200点(UTC)
风速13节,风向西转西南,有时为23节阵风
能見度: 10公里
散云层高于5000英尺

TAF: KCPS 281730Z 2818/2918 18008KT 6SM -RA BKN040 OVC120 FM282000 20013G23KT P6SM VCTS BKN045CB TEMPO 2820/2822 3SM TSRA OVC025CB FM290000 22012G22KT P6SM VCTS SCT050CB FM290200 25013G23KT P6SM SCT050

超过4000个机场的气象观测和天气预报(METAR&TAF报告)。

可查询的气象台以黄色和红色小点在地图上表示。

将鼠标移到小点上方,可查看气象台名称。

然后点击查看天气观测和预报。

如需切换地图:点击带黑十字的绿色按钮放大地图;点击带横线的绿色按钮缩小地图;或者点击绿色箭头查看邻近地区的地图。


METAR-TAF: